Glacier National Park, MT

10:21 PM MDT on May 29, 2015 (GMT -0600)
MesoWest | | Change Station
CLOSE
Current Station
Personal Weather Station
Location: Browning, MT
Elevation: 4750 ft
Nearby Weather Stations

Elev 4750 ft 48.45 °N, 113.20 °W | Updated 40 minutes ago

Partly Cloudy
Partly Cloudy
52 °F
Feels Like 52 °F
N
5
Wind Variable Wind from East
Gusts 7.0 mph

Today
High -- | Low -- °F
--% Chance of Precip.
Yesterday
High -- | Low -- °F
Precip. -- in
5:38 AM 9:25 PM
Waxing Gibbous, 88% visible
Pressure 30.08 in
Visibility 10.0 miles
Clouds Overcast 3800 ft
Dew Point 48 °F
Humidity 88%
Rainfall in
Snow Depth Not available.
UV 0 out of 12
Pollen 8.00 out of 12
Air Quality Not available.
Flu Activity Sporadic
METAR KCTB 300356Z AUTO 11014KT 10SM OVC038 13/08 A3009 RMK AO2 SLP184 T01330078

More Conditions Fewer Conditions

Pressure 30.08 in
Visibility 10.0 miles
Clouds Overcast 3800 ft
Dew Point 48 °F
Humidity 88%
Rainfall in
Snow Depth Not available.
UV 0 out of 12
Pollen 8.00 out of 12
Air Quality Not available.
Flu Activity Sporadic
METAR KCTB 300356Z AUTO 11014KT 10SM OVC038 13/08 A3009 RMK AO2 SLP184 T01330078

More Conditions Fewer Conditions

10-Day Weather Forecast

Almanac

Astronomy

May. 29, 2015 Rise Set
Actual Time
Civil Twilight
Nautical Twilight
Astronomical Twilight
Moon
Length of Visible Light
Length of Day
Tomorrow will be .
, % of the Moon is Illuminated

Today's Extremes

State Highs State Lows

Community

WunderPhotos

Upload Photos

1,825,451 photos uploaded!

WunderBlogs® & News

Nearby

Air Quality

  Air Quality AQ Index Pollutant
Not available.

Snow Depth

Station Depth Elevation

Earthquake Activity

City Distance Mag. Time & Date
Minimum magnitude displayed is 2.5.

Coastal Water Temperatures

Place Temperature

Stations

Nearby Weather Stations

Station Location Temp. Windchill Dew Point Humidity Wind Precip. Elev Updated Type